sensor_id;sensor_type;location;lat;lon;timestamp;P1;durP1;ratioP1;P2;durP2;ratioP2
64915;SDS011;51427;-27.442;153.014;2023-12-14T00:02:38;7.60;;;2.55;;
64915;SDS011;51427;-27.442;153.014;2023-12-14T00:06:00;6.93;;;2.30;;
64915;SDS011;51427;-27.442;153.014;2023-12-14T00:09:20;6.43;;;2.50;;
64915;SDS011;51427;-27.442;153.014;2023-12-14T00:12:40;5.40;;;2.42;;
64915;SDS011;51427;-27.442;153.014;2023-12-14T00:16:00;8.50;;;3.00;;
64915;SDS011;51427;-27.442;153.014;2023-12-14T00:19:25;5.93;;;2.50;;
64915;SDS011;51427;-27.442;153.014;2023-12-14T00:22:46;5.40;;;1.85;;
64915;SDS011;51427;-27.442;153.014;2023-12-14T00:26:06;5.68;;;2.60;;
64915;SDS011;51427;-27.442;153.014;2023-12-14T00:29:26;5.45;;;2.33;;
64915;SDS011;51427;-27.442;153.014;2023-12-14T00:32:46;7.30;;;2.40;;
64915;SDS011;51427;-27.442;153.014;2023-12-14T00:36:07;6.60;;;2.55;;
64915;SDS011;51427;-27.442;153.014;2023-12-14T00:39:27;6.55;;;2.42;;
64915;SDS011;51427;-27.442;153.014;2023-12-14T00:42:47;8.23;;;2.85;;
64915;SDS011;51427;-27.442;153.014;2023-12-14T00:46:07;5.25;;;2.33;;
64915;SDS011;51427;-27.442;153.014;2023-12-14T00:49:28;6.72;;;2.40;;
64915;SDS011;51427;-27.442;153.014;2023-12-14T00:52:48;7.75;;;2.38;;
64915;SDS011;51427;-27.442;153.014;2023-12-14T00:56:08;7.57;;;2.55;;
64915;SDS011;51427;-27.442;153.014;2023-12-14T00:59:29;7.15;;;2.85;;
64915;SDS011;51427;-27.442;153.014;2023-12-14T01:02:49;3.75;;;2.20;;
64915;SDS011;51427;-27.442;153.014;2023-12-14T01:06:09;5.25;;;2.50;;
64915;SDS011;51427;-27.442;153.014;2023-12-14T01:09:30;5.80;;;2.45;;
64915;SDS011;51427;-27.442;153.014;2023-12-14T01:12:51;6.55;;;2.58;;
64915;SDS011;51427;-27.442;153.014;2023-12-14T01:16:11;3.95;;;1.98;;
64915;SDS011;51427;-27.442;153.014;2023-12-14T01:19:31;4.47;;;2.60;;
64915;SDS011;51427;-27.442;153.014;2023-12-14T01:22:51;9.32;;;2.80;;
64915;SDS011;51427;-27.442;153.014;2023-12-14T01:26:11;8.27;;;2.70;;
64915;SDS011;51427;-27.442;153.014;2023-12-14T01:29:31;8.55;;;2.33;;
64915;SDS011;51427;-27.442;153.014;2023-12-14T01:32:51;7.32;;;2.83;;
64915;SDS011;51427;-27.442;153.014;2023-12-14T01:36:11;7.85;;;2.67;;
64915;SDS011;51427;-27.442;153.014;2023-12-14T01:39:32;8.25;;;2.90;;
64915;SDS011;51427;-27.442;153.014;2023-12-14T01:42:52;8.77;;;2.50;;
64915;SDS011;51427;-27.442;153.014;2023-12-14T01:46:13;7.28;;;2.65;;
64915;SDS011;51427;-27.442;153.014;2023-12-14T01:49:33;11.40;;;2.92;;
64915;SDS011;51427;-27.442;153.014;2023-12-14T01:52:53;12.32;;;2.75;;
64915;SDS011;51427;-27.442;153.014;2023-12-14T01:56:13;9.32;;;2.70;;
64915;SDS011;51427;-27.442;153.014;2023-12-14T01:59:33;7.07;;;2.50;;
64915;SDS011;51427;-27.442;153.014;2023-12-14T02:03:19;10.43;;;2.80;;
64915;SDS011;51427;-27.442;153.014;2023-12-14T02:06:40;12.05;;;2.80;;
64915;SDS011;51427;-27.442;153.014;2023-12-14T02:10:00;5.03;;;2.10;;
64915;SDS011;51427;-27.442;153.014;2023-12-14T02:13:21;6.43;;;2.30;;
64915;SDS011;51427;-27.442;153.014;2023-12-14T02:16:41;12.98;;;2.50;;
64915;SDS011;51427;-27.442;153.014;2023-12-14T02:20:01;7.65;;;2.70;;
64915;SDS011;51427;-27.442;153.014;2023-12-14T02:23:21;6.68;;;2.78;;
64915;SDS011;51427;-27.442;153.014;2023-12-14T02:26:41;5.43;;;2.35;;
64915;SDS011;51427;-27.442;153.014;2023-12-14T02:30:02;10.25;;;2.40;;
64915;SDS011;51427;-27.442;153.014;2023-12-14T02:33:22;10.38;;;2.63;;
64915;SDS011;51427;-27.442;153.014;2023-12-14T02:36:42;10.00;;;2.67;;
64915;SDS011;51427;-27.442;153.014;2023-12-14T02:40:03;6.13;;;2.47;;
64915;SDS011;51427;-27.442;153.014;2023-12-14T02:43:24;9.05;;;2.45;;
64915;SDS011;51427;-27.442;153.014;2023-12-14T02:46:44;7.50;;;2.58;;
64915;SDS011;51427;-27.442;153.014;2023-12-14T02:50:04;7.65;;;2.65;;
64915;SDS011;51427;-27.442;153.014;2023-12-14T02:53:26;5.25;;;2.25;;
64915;SDS011;51427;-27.442;153.014;2023-12-14T02:56:46;10.02;;;2.30;;
64915;SDS011;51427;-27.442;153.014;2023-12-14T03:00:06;9.15;;;3.05;;
64915;SDS011;51427;-27.442;153.014;2023-12-14T03:03:27;11.48;;;2.90;;
64915;SDS011;51427;-27.442;153.014;2023-12-14T03:06:47;15.25;;;2.90;;
64915;SDS011;51427;-27.442;153.014;2023-12-14T03:10:07;10.38;;;2.63;;
64915;SDS011;51427;-27.442;153.014;2023-12-14T03:13:28;11.45;;;3.50;;
64915;SDS011;51427;-27.442;153.014;2023-12-14T03:16:48;10.23;;;2.67;;
64915;SDS011;51427;-27.442;153.014;2023-12-14T03:20:08;10.73;;;2.92;;
64915;SDS011;51427;-27.442;153.014;2023-12-14T03:23:29;10.13;;;2.42;;
64915;SDS011;51427;-27.442;153.014;2023-12-14T03:26:49;13.15;;;3.17;;
64915;SDS011;51427;-27.442;153.014;2023-12-14T03:30:09;10.27;;;2.85;;
64915;SDS011;51427;-27.442;153.014;2023-12-14T03:33:29;10.50;;;3.00;;
64915;SDS011;51427;-27.442;153.014;2023-12-14T03:36:50;7.90;;;2.72;;
64915;SDS011;51427;-27.442;153.014;2023-12-14T03:40:10;14.05;;;2.95;;
64915;SDS011;51427;-27.442;153.014;2023-12-14T03:43:31;10.55;;;2.50;;
64915;SDS011;51427;-27.442;153.014;2023-12-14T03:46:51;13.30;;;3.13;;
64915;SDS011;51427;-27.442;153.014;2023-12-14T03:50:11;11.25;;;2.70;;
64915;SDS011;51427;-27.442;153.014;2023-12-14T03:53:31;10.30;;;2.78;;
64915;SDS011;51427;-27.442;153.014;2023-12-14T03:56:52;10.55;;;2.85;;
64915;SDS011;51427;-27.442;153.014;2023-12-14T04:00:12;8.30;;;2.30;;
64915;SDS011;51427;-27.442;153.014;2023-12-14T04:03:32;7.85;;;2.20;;
64915;SDS011;51427;-27.442;153.014;2023-12-14T04:06:52;6.93;;;2.03;;
64915;SDS011;51427;-27.442;153.014;2023-12-14T04:10:13;10.07;;;2.45;;
64915;SDS011;51427;-27.442;153.014;2023-12-14T04:13:33;7.32;;;2.40;;
64915;SDS011;51427;-27.442;153.014;2023-12-14T04:16:54;9.20;;;2.60;;
64915;SDS011;51427;-27.442;153.014;2023-12-14T04:20:14;8.70;;;2.67;;
64915;SDS011;51427;-27.442;153.014;2023-12-14T04:23:34;14.23;;;2.70;;
64915;SDS011;51427;-27.442;153.014;2023-12-14T04:26:54;6.85;;;2.70;;
64915;SDS011;51427;-27.442;153.014;2023-12-14T04:30:14;8.40;;;2.42;;
64915;SDS011;51427;-27.442;153.014;2023-12-14T04:33:36;10.18;;;2.97;;
64915;SDS011;51427;-27.442;153.014;2023-12-14T04:36:56;10.68;;;2.75;;
64915;SDS011;51427;-27.442;153.014;2023-12-14T04:40:11;10.15;;;2.83;;
64915;SDS011;51427;-27.442;153.014;2023-12-14T04:42:38;9.77;;;2.47;;
64915;SDS011;51427;-27.442;153.014;2023-12-14T04:45:58;9.98;;;2.83;;
64915;SDS011;51427;-27.442;153.014;2023-12-14T04:49:18;11.65;;;3.05;;
64915;SDS011;51427;-27.442;153.014;2023-12-14T04:52:40;8.95;;;2.90;;
64915;SDS011;51427;-27.442;153.014;2023-12-14T04:56:00;12.45;;;2.90;;
64915;SDS011;51427;-27.442;153.014;2023-12-14T04:59:20;12.35;;;3.10;;
64915;SDS011;51427;-27.442;153.014;2023-12-14T05:02:41;8.85;;;2.42;;
64915;SDS011;51427;-27.442;153.014;2023-12-14T05:06:01;9.68;;;2.80;;
64915;SDS011;51427;-27.442;153.014;2023-12-14T05:09:21;13.23;;;2.85;;
64915;SDS011;51427;-27.442;153.014;2023-12-14T05:11:49;11.88;;;2.78;;
64915;SDS011;51427;-27.442;153.014;2023-12-14T05:14:30;9.23;;;2.40;;
64915;SDS011;51427;-27.442;153.014;2023-12-14T05:16:58;7.20;;;2.65;;
64915;SDS011;51427;-27.442;153.014;2023-12-14T05:20:18;8.48;;;2.70;;
64915;SDS011;51427;-27.442;153.014;2023-12-14T05:23:47;11.10;;;2.92;;
64915;SDS011;51427;-27.442;153.014;2023-12-14T05:27:07;10.25;;;2.70;;
64915;SDS011;51427;-27.442;153.014;2023-12-14T05:30:27;10.00;;;2.60;;
64915;SDS011;51427;-27.442;153.014;2023-12-14T05:32:55;11.05;;;2.63;;
64915;SDS011;51427;-27.442;153.014;2023-12-14T05:35:23;10.02;;;2.75;;
64915;SDS011;51427;-27.442;153.014;2023-12-14T05:37:51;9.48;;;2.85;;
64915;SDS011;51427;-27.442;153.014;2023-12-14T05:40:18;9.52;;;3.08;;
64915;SDS011;51427;-27.442;153.014;2023-12-14T05:42:46;10.55;;;3.13;;
64915;SDS011;51427;-27.442;153.014;2023-12-14T05:45:14;12.35;;;2.72;;
64915;SDS011;51427;-27.442;153.014;2023-12-14T05:47:41;9.85;;;2.70;;
64915;SDS011;51427;-27.442;153.014;2023-12-14T05:50:09;11.20;;;3.28;;
64915;SDS011;51427;-27.442;153.014;2023-12-14T05:52:37;18.70;;;3.30;;
64915;SDS011;51427;-27.442;153.014;2023-12-14T05:55:09;12.50;;;2.88;;
64915;SDS011;51427;-27.442;153.014;2023-12-14T05:57:37;8.60;;;2.38;;
64915;SDS011;51427;-27.442;153.014;2023-12-14T06:00:06;8.77;;;2.90;;
64915;SDS011;51427;-27.442;153.014;2023-12-14T06:02:34;7.85;;;2.63;;
64915;SDS011;51427;-27.442;153.014;2023-12-14T06:05:26;11.32;;;3.25;;
64915;SDS011;51427;-27.442;153.014;2023-12-14T06:07:54;10.73;;;2.88;;
64915;SDS011;51427;-27.442;153.014;2023-12-14T06:10:22;9.82;;;2.80;;
64915;SDS011;51427;-27.442;153.014;2023-12-14T06:13:10;12.02;;;2.40;;
64915;SDS011;51427;-27.442;153.014;2023-12-14T06:15:51;9.48;;;2.85;;
64915;SDS011;51427;-27.442;153.014;2023-12-14T06:18:19;13.93;;;3.38;;
64915;SDS011;51427;-27.442;153.014;2023-12-14T06:20:47;8.60;;;2.80;;
64915;SDS011;51427;-27.442;153.014;2023-12-14T06:23:14;8.65;;;3.20;;
64915;SDS011;51427;-27.442;153.014;2023-12-14T06:25:42;11.60;;;3.72;;
64915;SDS011;51427;-27.442;153.014;2023-12-14T06:28:10;11.02;;;3.15;;
64915;SDS011;51427;-27.442;153.014;2023-12-14T06:31:30;13.10;;;3.40;;
64915;SDS011;51427;-27.442;153.014;2023-12-14T06:33:58;17.33;;;3.25;;
64915;SDS011;51427;-27.442;153.014;2023-12-14T06:36:32;8.00;;;3.22;;
64915;SDS011;51427;-27.442;153.014;2023-12-14T06:39:01;9.98;;;3.03;;
64915;SDS011;51427;-27.442;153.014;2023-12-14T06:41:31;9.50;;;2.70;;
64915;SDS011;51427;-27.442;153.014;2023-12-14T06:43:59;10.48;;;3.03;;
64915;SDS011;51427;-27.442;153.014;2023-12-14T06:46:27;8.68;;;3.05;;
64915;SDS011;51427;-27.442;153.014;2023-12-14T06:48:54;9.32;;;2.88;;
64915;SDS011;51427;-27.442;153.014;2023-12-14T06:51:22;8.27;;;2.47;;
64915;SDS011;51427;-27.442;153.014;2023-12-14T06:53:50;8.98;;;2.53;;
64915;SDS011;51427;-27.442;153.014;2023-12-14T06:56:18;7.65;;;2.90;;
64915;SDS011;51427;-27.442;153.014;2023-12-14T06:58:45;14.52;;;3.10;;
64915;SDS011;51427;-27.442;153.014;2023-12-14T07:01:16;10.75;;;3.00;;
64915;SDS011;51427;-27.442;153.014;2023-12-14T07:03:44;11.82;;;2.95;;
64915;SDS011;51427;-27.442;153.014;2023-12-14T07:06:15;9.13;;;2.90;;
64915;SDS011;51427;-27.442;153.014;2023-12-14T07:08:43;12.38;;;3.45;;
64915;SDS011;51427;-27.442;153.014;2023-12-14T07:11:12;13.93;;;3.67;;
64915;SDS011;51427;-27.442;153.014;2023-12-14T07:13:39;9.40;;;2.75;;
64915;SDS011;51427;-27.442;153.014;2023-12-14T07:16:08;8.32;;;2.75;;
64915;SDS011;51427;-27.442;153.014;2023-12-14T07:18:37;13.75;;;3.20;;
64915;SDS011;51427;-27.442;153.014;2023-12-14T07:21:07;9.93;;;3.00;;
64915;SDS011;51427;-27.442;153.014;2023-12-14T07:23:35;9.10;;;3.15;;
64915;SDS011;51427;-27.442;153.014;2023-12-14T07:26:03;9.43;;;2.65;;
64915;SDS011;51427;-27.442;153.014;2023-12-14T07:28:31;9.50;;;2.78;;
64915;SDS011;51427;-27.442;153.014;2023-12-14T07:30:58;12.68;;;3.45;;
64915;SDS011;51427;-27.442;153.014;2023-12-14T07:33:26;11.13;;;2.90;;
64915;SDS011;51427;-27.442;153.014;2023-12-14T07:35:54;9.18;;;2.88;;
64915;SDS011;51427;-27.442;153.014;2023-12-14T07:38:21;8.80;;;3.03;;
64915;SDS011;51427;-27.442;153.014;2023-12-14T07:40:49;15.70;;;2.90;;
64915;SDS011;51427;-27.442;153.014;2023-12-14T07:43:18;15.05;;;3.65;;
64915;SDS011;51427;-27.442;153.014;2023-12-14T07:45:45;9.35;;;3.28;;
64915;SDS011;51427;-27.442;153.014;2023-12-14T07:48:13;11.52;;;3.28;;
64915;SDS011;51427;-27.442;153.014;2023-12-14T07:50:41;10.15;;;3.30;;
64915;SDS011;51427;-27.442;153.014;2023-12-14T07:53:09;11.60;;;2.78;;
64915;SDS011;51427;-27.442;153.014;2023-12-14T07:55:36;10.23;;;2.83;;
64915;SDS011;51427;-27.442;153.014;2023-12-14T07:58:04;8.10;;;2.92;;
64915;SDS011;51427;-27.442;153.014;2023-12-14T08:00:32;9.65;;;3.35;;
64915;SDS011;51427;-27.442;153.014;2023-12-14T08:03:00;13.30;;;3.20;;
64915;SDS011;51427;-27.442;153.014;2023-12-14T08:05:28;9.43;;;3.10;;
64915;SDS011;51427;-27.442;153.014;2023-12-14T08:07:55;8.85;;;3.20;;
64915;SDS011;51427;-27.442;153.014;2023-12-14T08:10:23;12.45;;;3.25;;
64915;SDS011;51427;-27.442;153.014;2023-12-14T08:12:51;11.23;;;3.40;;
64915;SDS011;51427;-27.442;153.014;2023-12-14T08:15:18;8.23;;;3.00;;
64915;SDS011;51427;-27.442;153.014;2023-12-14T08:17:46;8.35;;;2.90;;
64915;SDS011;51427;-27.442;153.014;2023-12-14T08:20:14;12.45;;;3.45;;
64915;SDS011;51427;-27.442;153.014;2023-12-14T08:22:41;11.52;;;3.38;;
64915;SDS011;51427;-27.442;153.014;2023-12-14T08:25:15;9.18;;;3.70;;
64915;SDS011;51427;-27.442;153.014;2023-12-14T08:27:43;18.50;;;5.35;;
64915;SDS011;51427;-27.442;153.014;2023-12-14T08:30:11;12.65;;;3.65;;
64915;SDS011;51427;-27.442;153.014;2023-12-14T08:32:39;10.10;;;3.30;;
64915;SDS011;51427;-27.442;153.014;2023-12-14T08:35:07;11.68;;;3.42;;
64915;SDS011;51427;-27.442;153.014;2023-12-14T08:37:35;14.07;;;3.75;;
64915;SDS011;51427;-27.442;153.014;2023-12-14T08:40:04;11.80;;;3.67;;
64915;SDS011;51427;-27.442;153.014;2023-12-14T08:42:33;14.98;;;3.65;;
64915;SDS011;51427;-27.442;153.014;2023-12-14T08:45:01;12.35;;;3.72;;
64915;SDS011;51427;-27.442;153.014;2023-12-14T08:47:29;13.90;;;3.45;;
64915;SDS011;51427;-27.442;153.014;2023-12-14T08:49:56;14.57;;;3.80;;
64915;SDS011;51427;-27.442;153.014;2023-12-14T08:52:24;10.70;;;3.75;;
64915;SDS011;51427;-27.442;153.014;2023-12-14T08:54:52;10.63;;;3.45;;
64915;SDS011;51427;-27.442;153.014;2023-12-14T08:57:20;11.32;;;3.80;;
64915;SDS011;51427;-27.442;153.014;2023-12-14T08:59:47;11.82;;;3.80;;
64915;SDS011;51427;-27.442;153.014;2023-12-14T09:02:15;11.80;;;3.67;;
64915;SDS011;51427;-27.442;153.014;2023-12-14T09:04:42;9.70;;;3.88;;
64915;SDS011;51427;-27.442;153.014;2023-12-14T09:07:10;11.18;;;3.90;;
64915;SDS011;51427;-27.442;153.014;2023-12-14T09:09:38;11.45;;;3.67;;
64915;SDS011;51427;-27.442;153.014;2023-12-14T09:12:05;16.75;;;4.00;;
64915;SDS011;51427;-27.442;153.014;2023-12-14T09:14:33;13.05;;;3.65;;
64915;SDS011;51427;-27.442;153.014;2023-12-14T09:17:01;12.93;;;4.00;;
64915;SDS011;51427;-27.442;153.014;2023-12-14T09:19:29;10.98;;;3.58;;
64915;SDS011;51427;-27.442;153.014;2023-12-14T09:21:57;14.98;;;4.05;;
64915;SDS011;51427;-27.442;153.014;2023-12-14T09:24:25;12.68;;;4.00;;
64915;SDS011;51427;-27.442;153.014;2023-12-14T09:26:53;14.73;;;4.20;;
64915;SDS011;51427;-27.442;153.014;2023-12-14T09:29:20;9.93;;;3.72;;
64915;SDS011;51427;-27.442;153.014;2023-12-14T09:31:48;11.70;;;3.70;;
64915;SDS011;51427;-27.442;153.014;2023-12-14T09:34:16;11.80;;;3.78;;
64915;SDS011;51427;-27.442;153.014;2023-12-14T09:36:43;14.65;;;3.90;;
64915;SDS011;51427;-27.442;153.014;2023-12-14T09:39:11;13.25;;;3.90;;
64915;SDS011;51427;-27.442;153.014;2023-12-14T09:41:41;17.23;;;4.57;;
64915;SDS011;51427;-27.442;153.014;2023-12-14T09:44:08;14.95;;;3.90;;
64915;SDS011;51427;-27.442;153.014;2023-12-14T09:46:37;13.80;;;4.00;;
64915;SDS011;51427;-27.442;153.014;2023-12-14T09:49:07;16.17;;;4.10;;
64915;SDS011;51427;-27.442;153.014;2023-12-14T09:51:35;17.25;;;4.57;;
64915;SDS011;51427;-27.442;153.014;2023-12-14T09:54:03;12.15;;;4.30;;
64915;SDS011;51427;-27.442;153.014;2023-12-14T09:56:31;12.82;;;3.90;;
64915;SDS011;51427;-27.442;153.014;2023-12-14T09:58:58;16.08;;;4.57;;
64915;SDS011;51427;-27.442;153.014;2023-12-14T10:01:28;17.58;;;4.18;;
64915;SDS011;51427;-27.442;153.014;2023-12-14T10:04:08;13.63;;;3.83;;
64915;SDS011;51427;-27.442;153.014;2023-12-14T10:06:37;16.35;;;4.95;;
64915;SDS011;51427;-27.442;153.014;2023-12-14T10:09:06;14.25;;;4.20;;
64915;SDS011;51427;-27.442;153.014;2023-12-14T10:11:41;12.52;;;4.32;;
64915;SDS011;51427;-27.442;153.014;2023-12-14T10:14:19;14.02;;;4.43;;
64915;SDS011;51427;-27.442;153.014;2023-12-14T10:16:50;17.50;;;4.60;;
64915;SDS011;51427;-27.442;153.014;2023-12-14T10:19:19;16.42;;;4.68;;
64915;SDS011;51427;-27.442;153.014;2023-12-14T10:22:40;15.57;;;4.03;;
64915;SDS011;51427;-27.442;153.014;2023-12-14T10:26:01;12.85;;;3.83;;
64915;SDS011;51427;-27.442;153.014;2023-12-14T10:29:23;13.60;;;3.88;;
64915;SDS011;51427;-27.442;153.014;2023-12-14T10:32:43;14.45;;;4.00;;
64915;SDS011;51427;-27.442;153.014;2023-12-14T10:36:04;11.35;;;3.67;;
64915;SDS011;51427;-27.442;153.014;2023-12-14T10:39:24;10.88;;;3.50;;
64915;SDS011;51427;-27.442;153.014;2023-12-14T10:42:46;15.38;;;4.13;;
64915;SDS011;51427;-27.442;153.014;2023-12-14T10:45:55;11.02;;;4.40;;
64915;SDS011;51427;-27.442;153.014;2023-12-14T10:48:23;12.90;;;4.13;;
64915;SDS011;51427;-27.442;153.014;2023-12-14T10:50:55;12.05;;;3.55;;
64915;SDS011;51427;-27.442;153.014;2023-12-14T10:53:27;16.92;;;4.22;;
64915;SDS011;51427;-27.442;153.014;2023-12-14T10:55:55;12.60;;;3.67;;
64915;SDS011;51427;-27.442;153.014;2023-12-14T10:58:26;17.02;;;4.30;;
64915;SDS011;51427;-27.442;153.014;2023-12-14T11:01:01;14.73;;;4.68;;
64915;SDS011;51427;-27.442;153.014;2023-12-14T11:03:39;11.45;;;3.90;;
64915;SDS011;51427;-27.442;153.014;2023-12-14T11:08:56;14.68;;;3.95;;
64915;SDS011;51427;-27.442;153.014;2023-12-14T11:11:41;10.88;;;3.78;;
64915;SDS011;51427;-27.442;153.014;2023-12-14T11:14:13;10.02;;;4.60;;
64915;SDS011;51427;-27.442;153.014;2023-12-14T11:16:44;12.90;;;4.20;;
64915;SDS011;51427;-27.442;153.014;2023-12-14T11:21:48;9.70;;;;;
64915;SDS011;51427;-27.442;153.014;2023-12-14T11:24:37;19.23;;;4.60;;
64915;SDS011;51427;-27.442;153.014;2023-12-14T11:27:09;16.77;;;3.60;;
64915;SDS011;51427;-27.442;153.014;2023-12-14T11:29:38;12.65;;;3.80;;
64915;SDS011;51427;-27.442;153.014;2023-12-14T11:32:07;14.77;;;3.70;;
64915;SDS011;51427;-27.442;153.014;2023-12-14T11:34:35;10.93;;;3.78;;
64915;SDS011;51427;-27.442;153.014;2023-12-14T11:37:02;14.20;;;4.57;;
64915;SDS011;51427;-27.442;153.014;2023-12-14T11:39:31;13.57;;;4.10;;
64915;SDS011;51427;-27.442;153.014;2023-12-14T11:41:59;15.02;;;4.30;;
64915;SDS011;51427;-27.442;153.014;2023-12-14T11:44:32;10.68;;;3.65;;
64915;SDS011;51427;-27.442;153.014;2023-12-14T11:46:59;10.73;;;3.80;;
64915;SDS011;51427;-27.442;153.014;2023-12-14T11:49:29;18.20;;;4.10;;
64915;SDS011;51427;-27.442;153.014;2023-12-14T11:51:57;13.43;;;4.07;;
64915;SDS011;51427;-27.442;153.014;2023-12-14T11:54:28;14.05;;;4.40;;
64915;SDS011;51427;-27.442;153.014;2023-12-14T11:56:56;13.88;;;4.18;;
64915;SDS011;51427;-27.442;153.014;2023-12-14T11:59:23;11.13;;;3.65;;
64915;SDS011;51427;-27.442;153.014;2023-12-14T12:01:56;13.95;;;3.83;;
64915;SDS011;51427;-27.442;153.014;2023-12-14T12:04:24;11.57;;;3.80;;
64915;SDS011;51427;-27.442;153.014;2023-12-14T12:06:58;14.02;;;4.00;;
64915;SDS011;51427;-27.442;153.014;2023-12-14T12:09:34;7.82;;;3.80;;
64915;SDS011;51427;-27.442;153.014;2023-12-14T12:12:07;13.45;;;3.70;;
64915;SDS011;51427;-27.442;153.014;2023-12-14T12:14:35;9.38;;;3.50;;
64915;SDS011;51427;-27.442;153.014;2023-12-14T12:17:03;12.82;;;3.95;;
64915;SDS011;51427;-27.442;153.014;2023-12-14T12:19:32;12.82;;;3.97;;
64915;SDS011;51427;-27.442;153.014;2023-12-14T12:22:00;15.07;;;3.85;;
64915;SDS011;51427;-27.442;153.014;2023-12-14T12:24:28;13.20;;;4.22;;
64915;SDS011;51427;-27.442;153.014;2023-12-14T12:26:56;13.50;;;4.05;;
64915;SDS011;51427;-27.442;153.014;2023-12-14T12:29:23;14.75;;;4.20;;
64915;SDS011;51427;-27.442;153.014;2023-12-14T12:31:50;12.35;;;3.70;;
64915;SDS011;51427;-27.442;153.014;2023-12-14T12:34:18;16.15;;;4.05;;
64915;SDS011;51427;-27.442;153.014;2023-12-14T12:36:45;16.38;;;4.55;;
64915;SDS011;51427;-27.442;153.014;2023-12-14T12:39:12;12.25;;;4.07;;
64915;SDS011;51427;-27.442;153.014;2023-12-14T12:41:41;12.27;;;3.83;;
64915;SDS011;51427;-27.442;153.014;2023-12-14T12:44:23;12.77;;;3.90;;
64915;SDS011;51427;-27.442;153.014;2023-12-14T12:47:53;11.20;;;3.92;;
64915;SDS011;51427;-27.442;153.014;2023-12-14T12:50:40;13.85;;;3.92;;
64915;SDS011;51427;-27.442;153.014;2023-12-14T12:53:32;14.90;;;4.55;;
64915;SDS011;51427;-27.442;153.014;2023-12-14T12:56:27;15.40;;;3.97;;
64915;SDS011;51427;-27.442;153.014;2023-12-14T12:59:47;13.45;;;4.20;;
64915;SDS011;51427;-27.442;153.014;2023-12-14T13:02:44;12.20;;;3.90;;
64915;SDS011;51427;-27.442;153.014;2023-12-14T13:06:04;15.77;;;3.80;;
64915;SDS011;51427;-27.442;153.014;2023-12-14T13:09:27;13.02;;;3.80;;
64915;SDS011;51427;-27.442;153.014;2023-12-14T13:12:32;15.35;;;4.03;;
64915;SDS011;51427;-27.442;153.014;2023-12-14T13:15:00;11.32;;;3.90;;
64915;SDS011;51427;-27.442;153.014;2023-12-14T13:17:28;17.45;;;4.43;;
64915;SDS011;51427;-27.442;153.014;2023-12-14T13:20:48;15.95;;;4.07;;
64915;SDS011;51427;-27.442;153.014;2023-12-14T13:24:07;15.52;;;3.83;;
64915;SDS011;51427;-27.442;153.014;2023-12-14T13:27:26;11.75;;;4.22;;
64915;SDS011;51427;-27.442;153.014;2023-12-14T13:30:45;12.55;;;3.97;;
64915;SDS011;51427;-27.442;153.014;2023-12-14T13:34:05;12.32;;;3.90;;
64915;SDS011;51427;-27.442;153.014;2023-12-14T13:37:25;12.40;;;3.63;;
64915;SDS011;51427;-27.442;153.014;2023-12-14T13:40:45;13.50;;;3.95;;
64915;SDS011;51427;-27.442;153.014;2023-12-14T13:44:05;12.48;;;4.20;;
64915;SDS011;51427;-27.442;153.014;2023-12-14T13:47:24;12.10;;;3.85;;
64915;SDS011;51427;-27.442;153.014;2023-12-14T13:50:44;10.70;;;4.00;;
64915;SDS011;51427;-27.442;153.014;2023-12-14T13:54:04;13.40;;;4.15;;
64915;SDS011;51427;-27.442;153.014;2023-12-14T13:57:25;12.38;;;4.07;;
64915;SDS011;51427;-27.442;153.014;2023-12-14T14:00:44;8.23;;;4.07;;
64915;SDS011;51427;-27.442;153.014;2023-12-14T14:04:04;11.50;;;4.07;;
64915;SDS011;51427;-27.442;153.014;2023-12-14T14:07:24;15.40;;;4.15;;
64915;SDS011;51427;-27.442;153.014;2023-12-14T14:10:44;13.13;;;4.22;;
64915;SDS011;51427;-27.442;153.014;2023-12-14T14:14:06;11.02;;;4.55;;
64915;SDS011;51427;-27.442;153.014;2023-12-14T14:17:20;13.13;;;4.15;;
64915;SDS011;51427;-27.442;153.014;2023-12-14T14:20:40;13.52;;;3.90;;
64915;SDS011;51427;-27.442;153.014;2023-12-14T14:24:00;12.15;;;4.07;;
64915;SDS011;51427;-27.442;153.014;2023-12-14T14:27:20;15.68;;;4.18;;
64915;SDS011;51427;-27.442;153.014;2023-12-14T14:30:39;16.63;;;4.50;;
64915;SDS011;51427;-27.442;153.014;2023-12-14T14:33:26;6.97;;;3.60;;
64915;SDS011;51427;-27.442;153.014;2023-12-14T14:36:47;15.38;;;4.13;;
64915;SDS011;51427;-27.442;153.014;2023-12-14T14:39:59;8.00;;;3.80;;
64915;SDS011;51427;-27.442;153.014;2023-12-14T14:43:16;12.50;;;4.38;;
64915;SDS011;51427;-27.442;153.014;2023-12-14T14:46:36;12.30;;;4.00;;
64915;SDS011;51427;-27.442;153.014;2023-12-14T14:49:52;9.88;;;4.13;;
64915;SDS011;51427;-27.442;153.014;2023-12-14T14:53:11;12.90;;;4.43;;
64915;SDS011;51427;-27.442;153.014;2023-12-14T14:55:40;7.75;;;3.60;;
64915;SDS011;51427;-27.442;153.014;2023-12-14T14:58:21;11.48;;;4.05;;
64915;SDS011;51427;-27.442;153.014;2023-12-14T15:01:44;14.57;;;4.35;;
64915;SDS011;51427;-27.442;153.014;2023-12-14T15:04:33;17.48;;;5.35;;
64915;SDS011;51427;-27.442;153.014;2023-12-14T15:07:53;12.15;;;4.43;;
64915;SDS011;51427;-27.442;153.014;2023-12-14T15:11:13;11.98;;;4.30;;
64915;SDS011;51427;-27.442;153.014;2023-12-14T15:14:33;12.48;;;3.97;;
64915;SDS011;51427;-27.442;153.014;2023-12-14T15:17:00;10.18;;;4.03;;
64915;SDS011;51427;-27.442;153.014;2023-12-14T15:20:20;10.15;;;3.63;;
64915;SDS011;51427;-27.442;153.014;2023-12-14T15:23:39;14.85;;;4.15;;
64915;SDS011;51427;-27.442;153.014;2023-12-14T15:26:59;12.35;;;4.53;;
64915;SDS011;51427;-27.442;153.014;2023-12-14T15:30:19;11.05;;;4.10;;
64915;SDS011;51427;-27.442;153.014;2023-12-14T15:33:39;17.70;;;4.57;;
64915;SDS011;51427;-27.442;153.014;2023-12-14T15:36:58;10.70;;;4.30;;
64915;SDS011;51427;-27.442;153.014;2023-12-14T15:40:18;10.00;;;4.30;;
64915;SDS011;51427;-27.442;153.014;2023-12-14T15:43:38;11.65;;;4.28;;
64915;SDS011;51427;-27.442;153.014;2023-12-14T15:46:58;10.70;;;4.05;;
64915;SDS011;51427;-27.442;153.014;2023-12-14T15:50:18;10.90;;;4.13;;
64915;SDS011;51427;-27.442;153.014;2023-12-14T15:53:38;10.68;;;4.40;;
64915;SDS011;51427;-27.442;153.014;2023-12-14T15:56:58;10.13;;;4.20;;
64915;SDS011;51427;-27.442;153.014;2023-12-14T16:00:18;10.60;;;3.67;;
64915;SDS011;51427;-27.442;153.014;2023-12-14T16:03:38;12.82;;;4.53;;
64915;SDS011;51427;-27.442;153.014;2023-12-14T16:06:58;14.23;;;4.57;;
64915;SDS011;51427;-27.442;153.014;2023-12-14T16:10:18;12.02;;;3.80;;
64915;SDS011;51427;-27.442;153.014;2023-12-14T16:13:39;12.85;;;4.57;;
64915;SDS011;51427;-27.442;153.014;2023-12-14T16:16:58;12.18;;;4.55;;
64915;SDS011;51427;-27.442;153.014;2023-12-14T16:20:18;11.07;;;4.40;;
64915;SDS011;51427;-27.442;153.014;2023-12-14T16:23:39;9.82;;;4.15;;
64915;SDS011;51427;-27.442;153.014;2023-12-14T16:26:58;8.32;;;4.28;;
64915;SDS011;51427;-27.442;153.014;2023-12-14T16:30:18;14.10;;;4.70;;
64915;SDS011;51427;-27.442;153.014;2023-12-14T16:33:38;11.93;;;4.68;;
64915;SDS011;51427;-27.442;153.014;2023-12-14T16:36:58;9.18;;;4.28;;
64915;SDS011;51427;-27.442;153.014;2023-12-14T16:40:18;10.45;;;4.18;;
64915;SDS011;51427;-27.442;153.014;2023-12-14T16:43:38;11.63;;;4.30;;